sensor_id;sensor_type;location;lat;lon;timestamp;pressure;altitude;pressure_sealevel;temperature;humidity
45793;BME280;31495;42.740;22.908;2024-02-21T00:00:13;93709.13;;;3.49;85.70
45793;BME280;31495;42.740;22.908;2024-02-21T00:01:14;93712.53;;;3.49;85.66
45793;BME280;31495;42.740;22.908;2024-02-21T00:02:13;93711.84;;;3.47;85.86
45793;BME280;31495;42.740;22.908;2024-02-21T00:03:13;93709.09;;;3.41;85.92
45793;BME280;31495;42.740;22.908;2024-02-21T00:04:13;93708.31;;;3.40;86.27
45793;BME280;31495;42.740;22.908;2024-02-21T00:05:13;93711.16;;;3.37;86.52
45793;BME280;31495;42.740;22.908;2024-02-21T00:06:13;93714.69;;;3.36;86.55
45793;BME280;31495;42.740;22.908;2024-02-21T00:07:13;93706.84;;;3.38;86.73
45793;BME280;31495;42.740;22.908;2024-02-21T00:08:14;93707.66;;;3.38;86.85
45793;BME280;31495;42.740;22.908;2024-02-21T00:09:14;93709.56;;;3.36;86.91
45793;BME280;31495;42.740;22.908;2024-02-21T00:10:14;93703.50;;;3.37;87.03
45793;BME280;31495;42.740;22.908;2024-02-21T00:11:14;93702.53;;;3.38;87.00
45793;BME280;31495;42.740;22.908;2024-02-21T00:12:14;93700.00;;;3.38;86.97
45793;BME280;31495;42.740;22.908;2024-02-21T00:13:14;93702.25;;;3.41;87.00
45793;BME280;31495;42.740;22.908;2024-02-21T00:14:14;93703.19;;;3.40;87.10
45793;BME280;31495;42.740;22.908;2024-02-21T00:15:13;93698.56;;;3.44;87.38
45793;BME280;31495;42.740;22.908;2024-02-21T00:16:13;93695.41;;;3.50;86.94
45793;BME280;31495;42.740;22.908;2024-02-21T00:17:15;93696.19;;;3.50;86.65
45793;BME280;31495;42.740;22.908;2024-02-21T00:18:14;93700.38;;;3.52;86.40
45793;BME280;31495;42.740;22.908;2024-02-21T00:19:15;93694.72;;;3.40;86.76
45793;BME280;31495;42.740;22.908;2024-02-21T00:20:15;93698.81;;;3.33;86.87
45793;BME280;31495;42.740;22.908;2024-02-21T00:21:15;93692.75;;;3.34;87.23
45793;BME280;31495;42.740;22.908;2024-02-21T00:22:17;93695.63;;;3.30;87.43
45793;BME280;31495;42.740;22.908;2024-02-21T00:23:16;93692.28;;;3.30;87.49
45793;BME280;31495;42.740;22.908;2024-02-21T00:24:16;93692.72;;;3.25;87.54
45793;BME280;31495;42.740;22.908;2024-02-21T00:25:16;93691.78;;;3.26;87.62
45793;BME280;31495;42.740;22.908;2024-02-21T00:26:15;93691.41;;;3.21;87.97
45793;BME280;31495;42.740;22.908;2024-02-21T00:27:15;93689.47;;;3.15;88.15
45793;BME280;31495;42.740;22.908;2024-02-21T00:28:15;93698.53;;;3.09;88.62
45793;BME280;31495;42.740;22.908;2024-02-21T00:29:15;93693.41;;;3.09;88.63
45793;BME280;31495;42.740;22.908;2024-02-21T00:30:15;93692.78;;;3.07;89.00
45793;BME280;31495;42.740;22.908;2024-02-21T00:31:15;93699.78;;;3.05;89.32
45793;BME280;31495;42.740;22.908;2024-02-21T00:32:15;93695.63;;;3.04;89.46
45793;BME280;31495;42.740;22.908;2024-02-21T00:33:16;93693.56;;;3.08;89.39
45793;BME280;31495;42.740;22.908;2024-02-21T00:34:16;93697.44;;;3.12;89.17
45793;BME280;31495;42.740;22.908;2024-02-21T00:35:16;93702.09;;;3.17;88.72
45793;BME280;31495;42.740;22.908;2024-02-21T00:36:15;93696.47;;;3.13;88.76
45793;BME280;31495;42.740;22.908;2024-02-21T00:37:16;93701.91;;;3.10;88.68
45793;BME280;31495;42.740;22.908;2024-02-21T00:38:16;93695.69;;;3.12;88.75
45793;BME280;31495;42.740;22.908;2024-02-21T00:39:15;93697.44;;;3.12;88.97
45793;BME280;31495;42.740;22.908;2024-02-21T00:40:14;93693.25;;;3.11;89.14
45793;BME280;31495;42.740;22.908;2024-02-21T00:41:19;93698.22;;;3.12;89.10
45793;BME280;31495;42.740;22.908;2024-02-21T00:42:18;93695.53;;;3.14;89.08
45793;BME280;31495;42.740;22.908;2024-02-21T00:43:17;93689.91;;;3.10;88.91
45793;BME280;31495;42.740;22.908;2024-02-21T00:44:17;93686.25;;;3.13;88.89
45793;BME280;31495;42.740;22.908;2024-02-21T00:45:17;93692.19;;;3.13;88.92
45793;BME280;31495;42.740;22.908;2024-02-21T00:46:17;93695.03;;;3.10;88.74
45793;BME280;31495;42.740;22.908;2024-02-21T00:47:17;93688.16;;;3.11;88.95
45793;BME280;31495;42.740;22.908;2024-02-21T00:48:17;93692.91;;;3.06;88.88
45793;BME280;31495;42.740;22.908;2024-02-21T00:49:17;93696.13;;;3.08;89.03
45793;BME280;31495;42.740;22.908;2024-02-21T00:50:17;93688.31;;;3.09;89.30
45793;BME280;31495;42.740;22.908;2024-02-21T00:51:17;93688.16;;;3.11;89.26
45793;BME280;31495;42.740;22.908;2024-02-21T00:52:17;93689.78;;;3.12;89.06
45793;BME280;31495;42.740;22.908;2024-02-21T00:53:20;93687.22;;;3.12;89.00
45793;BME280;31495;42.740;22.908;2024-02-21T00:54:19;93685.31;;;3.14;89.21
45793;BME280;31495;42.740;22.908;2024-02-21T00:55:18;93691.69;;;3.10;88.93
45793;BME280;31495;42.740;22.908;2024-02-21T00:56:18;93676.50;;;3.08;89.31
45793;BME280;31495;42.740;22.908;2024-02-21T00:57:17;93680.63;;;3.09;89.08
45793;BME280;31495;42.740;22.908;2024-02-21T00:58:18;93685.84;;;3.00;89.38
45793;BME280;31495;42.740;22.908;2024-02-21T00:59:17;93683.28;;;3.00;89.51
45793;BME280;31495;42.740;22.908;2024-02-21T01:00:18;93675.28;;;2.94;89.60
45793;BME280;31495;42.740;22.908;2024-02-21T01:01:21;93647.19;;;2.76;89.72
45793;BME280;31495;42.740;22.908;2024-02-21T01:02:21;93675.41;;;2.93;89.66
45793;BME280;31495;42.740;22.908;2024-02-21T01:03:20;93669.00;;;2.89;89.95
45793;BME280;31495;42.740;22.908;2024-02-21T01:04:20;93679.03;;;2.82;90.19
45793;BME280;31495;42.740;22.908;2024-02-21T01:05:19;93673.09;;;2.82;90.49
45793;BME280;31495;42.740;22.908;2024-02-21T01:06:19;93674.88;;;2.81;90.44
45793;BME280;31495;42.740;22.908;2024-02-21T01:07:18;93670.34;;;2.75;90.30
45793;BME280;31495;42.740;22.908;2024-02-21T01:08:18;93674.81;;;2.73;90.71
45793;BME280;31495;42.740;22.908;2024-02-21T01:09:19;93676.56;;;2.72;90.64
45793;BME280;31495;42.740;22.908;2024-02-21T01:10:19;93680.34;;;2.68;90.92
45793;BME280;31495;42.740;22.908;2024-02-21T01:11:19;93678.59;;;2.69;91.02
45793;BME280;31495;42.740;22.908;2024-02-21T01:12:19;93670.72;;;2.62;90.82
45793;BME280;31495;42.740;22.908;2024-02-21T01:13:19;93670.38;;;2.57;91.21
45793;BME280;31495;42.740;22.908;2024-02-21T01:14:19;93674.03;;;2.54;91.42
45793;BME280;31495;42.740;22.908;2024-02-21T01:15:19;93675.75;;;2.54;91.54
45793;BME280;31495;42.740;22.908;2024-02-21T01:16:19;93672.84;;;2.49;91.68
45793;BME280;31495;42.740;22.908;2024-02-21T01:17:18;93676.94;;;2.42;91.87
45793;BME280;31495;42.740;22.908;2024-02-21T01:18:19;93672.50;;;2.44;91.87
45793;BME280;31495;42.740;22.908;2024-02-21T01:19:19;93678.53;;;2.43;92.24
45793;BME280;31495;42.740;22.908;2024-02-21T01:20:20;93668.31;;;2.43;92.21
45793;BME280;31495;42.740;22.908;2024-02-21T01:21:19;93667.38;;;2.44;92.28
45793;BME280;31495;42.740;22.908;2024-02-21T01:22:20;93668.31;;;2.43;92.20
45793;BME280;31495;42.740;22.908;2024-02-21T01:23:20;93611.66;;;2.03;92.00
45793;BME280;31495;42.740;22.908;2024-02-21T01:24:20;93671.84;;;2.42;92.01
45793;BME280;31495;42.740;22.908;2024-02-21T01:25:20;93666.44;;;2.45;92.10
45793;BME280;31495;42.740;22.908;2024-02-21T01:26:19;93668.84;;;2.46;91.76
45793;BME280;31495;42.740;22.908;2024-02-21T01:27:20;93668.19;;;2.44;91.86
45793;BME280;31495;42.740;22.908;2024-02-21T01:28:20;93666.44;;;2.45;91.88
45793;BME280;31495;42.740;22.908;2024-02-21T01:29:20;93666.59;;;2.43;91.98
45793;BME280;31495;42.740;22.908;2024-02-21T01:30:20;93666.44;;;2.45;91.99
45793;BME280;31495;42.740;22.908;2024-02-21T01:31:20;93670.44;;;2.47;92.10
45793;BME280;31495;42.740;22.908;2024-02-21T01:32:21;93666.31;;;2.46;92.30
45793;BME280;31495;42.740;22.908;2024-02-21T01:33:21;93663.97;;;2.53;91.88
45793;BME280;31495;42.740;22.908;2024-02-21T01:34:20;93664.75;;;2.53;91.71
45793;BME280;31495;42.740;22.908;2024-02-21T01:35:20;93662.06;;;2.55;91.91
45793;BME280;31495;42.740;22.908;2024-02-21T01:36:21;93661.91;;;2.56;91.94
45793;BME280;31495;42.740;22.908;2024-02-21T01:37:21;93663.66;;;2.56;91.76
45793;BME280;31495;42.740;22.908;2024-02-21T01:38:21;93665.25;;;2.57;91.73
45793;BME280;31495;42.740;22.908;2024-02-21T01:39:21;93671.63;;;2.53;91.48
45793;BME280;31495;42.740;22.908;2024-02-21T01:40:21;93664.31;;;2.58;91.46
45793;BME280;31495;42.740;22.908;2024-02-21T01:41:20;93659.84;;;2.60;91.19
45793;BME280;31495;42.740;22.908;2024-02-21T01:42:24;93663.34;;;2.59;90.63
45793;BME280;31495;42.740;22.908;2024-02-21T01:43:23;93655.53;;;2.61;90.38
45793;BME280;31495;42.740;22.908;2024-02-21T01:44:22;93661.31;;;2.63;89.96
45793;BME280;31495;42.740;22.908;2024-02-21T01:45:22;93662.75;;;2.65;89.74
45793;BME280;31495;42.740;22.908;2024-02-21T01:46:22;93661.31;;;2.63;89.84
45793;BME280;31495;42.740;22.908;2024-02-21T01:47:22;93602.25;;;2.22;89.52
45793;BME280;31495;42.740;22.908;2024-02-21T01:48:22;93657.66;;;2.65;89.17
45793;BME280;31495;42.740;22.908;2024-02-21T01:49:22;93652.69;;;2.64;89.31
45793;BME280;31495;42.740;22.908;2024-02-21T01:50:22;93645.69;;;2.66;89.35
45793;BME280;31495;42.740;22.908;2024-02-21T01:51:23;93651.16;;;2.71;89.42
45793;BME280;31495;42.740;22.908;2024-02-21T01:52:22;93654.22;;;2.74;89.17
45793;BME280;31495;42.740;22.908;2024-02-21T01:53:29;93645.91;;;2.72;89.28
45793;BME280;31495;42.740;22.908;2024-02-21T01:54:29;93650.34;;;2.70;89.33
45793;BME280;31495;42.740;22.908;2024-02-21T01:55:28;93644.44;;;2.70;89.26
45793;BME280;31495;42.740;22.908;2024-02-21T01:56:27;93648.16;;;2.75;89.23
45793;BME280;31495;42.740;22.908;2024-02-21T01:57:27;93644.19;;;2.81;88.96
45793;BME280;31495;42.740;22.908;2024-02-21T01:58:28;93649.94;;;2.83;88.82
45793;BME280;31495;42.740;22.908;2024-02-21T01:59:27;93650.78;;;2.84;88.68
45793;BME280;31495;42.740;22.908;2024-02-21T02:00:27;93653.16;;;2.85;88.76
45793;BME280;31495;42.740;22.908;2024-02-21T02:01:27;93637.38;;;2.90;88.52
45793;BME280;31495;42.740;22.908;2024-02-21T02:02:27;93641.69;;;2.89;88.46
45793;BME280;31495;42.740;22.908;2024-02-21T02:03:26;93642.34;;;2.91;88.57
45793;BME280;31495;42.740;22.908;2024-02-21T02:04:26;93644.44;;;2.96;88.45
45793;BME280;31495;42.740;22.908;2024-02-21T02:05:26;93641.75;;;2.98;88.27
45793;BME280;31495;42.740;22.908;2024-02-21T02:06:25;93638.88;;;3.01;87.99
45793;BME280;31495;42.740;22.908;2024-02-21T02:07:25;93634.56;;;3.01;87.61
45793;BME280;31495;42.740;22.908;2024-02-21T02:08:24;93633.28;;;2.97;87.83
45793;BME280;31495;42.740;22.908;2024-02-21T02:09:24;93639.03;;;2.99;88.00
45793;BME280;31495;42.740;22.908;2024-02-21T02:10:24;93638.38;;;2.97;88.01
45793;BME280;31495;42.740;22.908;2024-02-21T02:11:24;93642.53;;;2.98;88.08
45793;BME280;31495;42.740;22.908;2024-02-21T02:12:24;93638.09;;;3.00;88.11
45793;BME280;31495;42.740;22.908;2024-02-21T02:13:24;93635.22;;;3.03;87.79
45793;BME280;31495;42.740;22.908;2024-02-21T02:14:24;93640.66;;;3.00;87.76
45793;BME280;31495;42.740;22.908;2024-02-21T02:15:24;93637.13;;;3.01;88.03
45793;BME280;31495;42.740;22.908;2024-02-21T02:16:24;93633.94;;;2.99;87.90
45793;BME280;31495;42.740;22.908;2024-02-21T02:17:23;93625.59;;;2.97;88.03
45793;BME280;31495;42.740;22.908;2024-02-21T02:18:24;93629.75;;;2.98;88.02
45793;BME280;31495;42.740;22.908;2024-02-21T02:19:24;93628.00;;;2.99;87.78
45793;BME280;31495;42.740;22.908;2024-02-21T02:20:24;93625.31;;;3.00;87.89
45793;BME280;31495;42.740;22.908;2024-02-21T02:21:28;93630.44;;;3.00;88.07
45793;BME280;31495;42.740;22.908;2024-02-21T02:22:28;93620.06;;;3.02;87.78
45793;BME280;31495;42.740;22.908;2024-02-21T02:23:31;93625.16;;;3.02;87.91
45793;BME280;31495;42.740;22.908;2024-02-21T02:24:31;93624.50;;;3.00;87.92
45793;BME280;31495;42.740;22.908;2024-02-21T02:25:30;93625.81;;;3.04;87.87
45793;BME280;31495;42.740;22.908;2024-02-21T02:26:30;93628.84;;;3.07;87.41
45793;BME280;31495;42.740;22.908;2024-02-21T02:27:29;93622.81;;;3.08;87.03
45793;BME280;31495;42.740;22.908;2024-02-21T02:28:28;93626.94;;;3.09;87.00
45793;BME280;31495;42.740;22.908;2024-02-21T02:29:28;93624.03;;;3.04;87.25
45793;BME280;31495;42.740;22.908;2024-02-21T02:30:27;93626.75;;;3.03;87.51
45793;BME280;31495;42.740;22.908;2024-02-21T02:31:26;93627.19;;;2.98;87.75
45793;BME280;31495;42.740;22.908;2024-02-21T02:32:26;93623.56;;;3.01;87.75
45793;BME280;31495;42.740;22.908;2024-02-21T02:33:26;93626.09;;;3.01;87.78
45793;BME280;31495;42.740;22.908;2024-02-21T02:34:25;93631.50;;;2.98;87.92
45793;BME280;31495;42.740;22.908;2024-02-21T02:35:25;93628.81;;;2.99;87.88
45793;BME280;31495;42.740;22.908;2024-02-21T02:36:25;93629.75;;;2.98;88.00
45793;BME280;31495;42.740;22.908;2024-02-21T02:37:26;93629.75;;;2.98;88.10
45793;BME280;31495;42.740;22.908;2024-02-21T02:38:26;93628.16;;;2.97;88.22
45793;BME280;31495;42.740;22.908;2024-02-21T02:39:26;93622.75;;;3.00;88.19
45793;BME280;31495;42.740;22.908;2024-02-21T02:40:26;93585.06;;;2.76;88.09
45793;BME280;31495;42.740;22.908;2024-02-21T02:41:28;93633.63;;;3.02;88.18
45793;BME280;31495;42.740;22.908;2024-02-21T02:42:28;93629.31;;;3.03;88.14
45793;BME280;31495;42.740;22.908;2024-02-21T02:43:27;93630.91;;;3.04;87.96
45793;BME280;31495;42.740;22.908;2024-02-21T02:44:26;93626.09;;;3.01;87.88
45793;BME280;31495;42.740;22.908;2024-02-21T02:45:26;93625.97;;;3.02;87.90
45793;BME280;31495;42.740;22.908;2024-02-21T02:46:26;93623.09;;;3.05;87.75
45793;BME280;31495;42.740;22.908;2024-02-21T02:47:26;93623.91;;;3.06;87.51
45793;BME280;31495;42.740;22.908;2024-02-21T02:48:26;93622.13;;;3.06;87.67
45793;BME280;31495;42.740;22.908;2024-02-21T02:49:25;93621.19;;;3.07;87.63
45793;BME280;31495;42.740;22.908;2024-02-21T02:50:29;93630.63;;;3.07;87.73
45793;BME280;31495;42.740;22.908;2024-02-21T02:51:28;93637.31;;;3.08;87.85
45793;BME280;31495;42.740;22.908;2024-02-21T02:52:28;93634.75;;;3.08;87.66
45793;BME280;31495;42.740;22.908;2024-02-21T02:53:27;93634.13;;;3.06;87.88
45793;BME280;31495;42.740;22.908;2024-02-21T02:54:27;93632.34;;;3.06;87.92
45793;BME280;31495;42.740;22.908;2024-02-21T02:55:27;93634.13;;;3.06;88.22
45793;BME280;31495;42.740;22.908;2024-02-21T02:56:27;93635.84;;;2.97;88.11
45793;BME280;31495;42.740;22.908;2024-02-21T02:57:27;93640.28;;;2.95;88.32
45793;BME280;31495;42.740;22.908;2024-02-21T02:58:26;93638.03;;;2.92;88.33
45793;BME280;31495;42.740;22.908;2024-02-21T02:59:27;93632.59;;;2.95;88.56
45793;BME280;31495;42.740;22.908;2024-02-21T03:00:27;93629.41;;;2.93;88.24
45793;BME280;31495;42.740;22.908;2024-02-21T03:01:28;93630.88;;;2.96;88.47
45793;BME280;31495;42.740;22.908;2024-02-21T03:02:28;93626.56;;;2.96;88.25
45793;BME280;31495;42.740;22.908;2024-02-21T03:03:28;93630.88;;;2.96;88.07
45793;BME280;31495;42.740;22.908;2024-02-21T03:04:27;93632.00;;;3.01;87.55
45793;BME280;31495;42.740;22.908;2024-02-21T03:05:28;93634.41;;;3.03;87.48
45793;BME280;31495;42.740;22.908;2024-02-21T03:06:27;93634.25;;;3.04;87.32
45793;BME280;31495;42.740;22.908;2024-02-21T03:07:28;93630.78;;;3.05;87.37
45793;BME280;31495;42.740;22.908;2024-02-21T03:08:28;93632.84;;;3.02;87.28
45793;BME280;31495;42.740;22.908;2024-02-21T03:09:28;93632.97;;;3.00;87.41
45793;BME280;31495;42.740;22.908;2024-02-21T03:10:28;93629.31;;;3.03;87.39
45793;BME280;31495;42.740;22.908;2024-02-21T03:11:28;93636.03;;;3.04;87.12
45793;BME280;31495;42.740;22.908;2024-02-21T03:12:29;93636.19;;;3.02;87.02
45793;BME280;31495;42.740;22.908;2024-02-21T03:13:29;93634.41;;;3.03;87.23
45793;BME280;31495;42.740;22.908;2024-02-21T03:14:28;93636.66;;;3.06;87.33
45793;BME280;31495;42.740;22.908;2024-02-21T03:15:29;93636.97;;;3.03;87.35
45793;BME280;31495;42.740;22.908;2024-02-21T03:16:31;93635.53;;;3.00;87.47
45793;BME280;31495;42.740;22.908;2024-02-21T03:17:31;93643.22;;;3.00;87.47
45793;BME280;31495;42.740;22.908;2024-02-21T03:18:31;93641.44;;;3.01;87.38
45793;BME280;31495;42.740;22.908;2024-02-21T03:19:30;93644.16;;;2.99;87.27
45793;BME280;31495;42.740;22.908;2024-02-21T03:20:29;93651.31;;;2.96;87.69
45793;BME280;31495;42.740;22.908;2024-02-21T03:21:29;93586.88;;;2.57;87.63
45793;BME280;31495;42.740;22.908;2024-02-21T03:22:29;93642.53;;;2.98;87.74
45793;BME280;31495;42.740;22.908;2024-02-21T03:23:29;93649.41;;;2.98;87.44
45793;BME280;31495;42.740;22.908;2024-02-21T03:24:30;93645.72;;;2.92;87.73
45793;BME280;31495;42.740;22.908;2024-02-21T03:25:30;93645.88;;;2.90;87.72
45793;BME280;31495;42.740;22.908;2024-02-21T03:26:30;93645.88;;;2.90;87.79
45793;BME280;31495;42.740;22.908;2024-02-21T03:27:30;93649.06;;;2.92;87.70
45793;BME280;31495;42.740;22.908;2024-02-21T03:28:30;93651.78;;;2.91;87.50
45793;BME280;31495;42.740;22.908;2024-02-21T03:29:30;93653.38;;;2.92;87.66
45793;BME280;31495;42.740;22.908;2024-02-21T03:30:29;93652.72;;;2.90;87.67
45793;BME280;31495;42.740;22.908;2024-02-21T03:31:29;93651.78;;;2.91;87.91
45793;BME280;31495;42.740;22.908;2024-02-21T03:32:30;93645.53;;;2.93;87.60
45793;BME280;31495;42.740;22.908;2024-02-21T03:33:30;93651.78;;;2.91;87.70
45793;BME280;31495;42.740;22.908;2024-02-21T03:34:30;93654.31;;;2.91;87.77
45793;BME280;31495;42.740;22.908;2024-02-21T03:35:30;93662.13;;;2.89;87.94
45793;BME280;31495;42.740;22.908;2024-02-21T03:36:31;93661.06;;;2.92;87.92
45793;BME280;31495;42.740;22.908;2024-02-21T03:37:31;93654.97;;;2.93;87.84
45793;BME280;31495;42.740;22.908;2024-02-21T03:38:30;93653.00;;;2.87;87.84
45793;BME280;31495;42.740;22.908;2024-02-21T03:39:31;93646.94;;;2.88;87.84
45793;BME280;31495;42.740;22.908;2024-02-21T03:40:32;93652.56;;;2.91;87.90
45793;BME280;31495;42.740;22.908;2024-02-21T03:41:31;93651.78;;;2.91;87.94
45793;BME280;31495;42.740;22.908;2024-02-21T03:42:31;93648.56;;;2.89;87.77
45793;BME280;31495;42.740;22.908;2024-02-21T03:43:31;93647.25;;;2.85;87.94
45793;BME280;31495;42.740;22.908;2024-02-21T03:44:31;93652.72;;;2.90;87.89
45793;BME280;31495;42.740;22.908;2024-02-21T03:45:31;93655.06;;;2.83;88.09
45793;BME280;31495;42.740;22.908;2024-02-21T03:46:31;93663.56;;;2.84;88.35
45793;BME280;31495;42.740;22.908;2024-02-21T03:47:30;93657.31;;;2.86;87.99
45793;BME280;31495;42.740;22.908;2024-02-21T03:48:31;93653.00;;;2.87;88.00
45793;BME280;31495;42.740;22.908;2024-02-21T03:49:31;93652.84;;;2.88;87.96
45793;BME280;31495;42.740;22.908;2024-02-21T03:50:32;93657.47;;;2.85;87.83
45793;BME280;31495;42.740;22.908;2024-02-21T03:51:32;93661.00;;;2.84;87.85
45793;BME280;31495;42.740;22.908;2024-02-21T03:52:32;93655.34;;;2.80;87.93
45793;BME280;31495;42.740;22.908;2024-02-21T03:53:32;93659.03;;;2.78;87.88
45793;BME280;31495;42.740;22.908;2024-02-21T03:54:32;93666.34;;;2.72;87.72
45793;BME280;31495;42.740;22.908;2024-02-21T03:55:32;93661.09;;;2.74;87.51
45793;BME280;31495;42.740;22.908;2024-02-21T03:56:32;93661.81;;;2.66;87.59
45793;BME280;31495;42.740;22.908;2024-02-21T03:57:32;93663.06;;;2.62;87.76
45793;BME280;31495;42.740;22.908;2024-02-21T03:58:32;93665.25;;;2.57;87.84
45793;BME280;31495;42.740;22.908;2024-02-21T03:59:33;93660.28;;;2.55;88.19
45793;BME280;31495;42.740;22.908;2024-02-21T04:00:33;93667.00;;;2.56;88.27
45793;BME280;31495;42.740;22.908;2024-02-21T04:01:33;93662.06;;;2.55;88.19
45793;BME280;31495;42.740;22.908;2024-02-21T04:02:33;93668.78;;;2.56;88.42
45793;BME280;31495;42.740;22.908;2024-02-21T04:03:33;93669.34;;;2.50;88.49
45793;BME280;31495;42.740;22.908;2024-02-21T04:04:33;93670.28;;;2.49;88.86
45793;BME280;31495;42.740;22.908;2024-02-21T04:05:33;93664.53;;;2.47;88.87
45793;BME280;31495;42.740;22.908;2024-02-21T04:06:32;93670.72;;;2.44;89.19
45793;BME280;31495;42.740;22.908;2024-02-21T04:07:33;93672.50;;;2.44;89.15
45793;BME280;31495;42.740;22.908;2024-02-21T04:08:32;93667.09;;;2.47;89.09
45793;BME280;31495;42.740;22.908;2024-02-21T04:09:33;93669.44;;;2.40;89.23
45793;BME280;31495;42.740;22.908;2024-02-21T04:10:33;93671.69;;;2.43;89.46
45793;BME280;31495;42.740;22.908;2024-02-21T04:11:33;93672.50;;;2.44;89.38
45793;BME280;31495;42.740;22.908;2024-02-21T04:12:34;93672.72;;;2.32;89.46
45793;BME280;31495;42.740;22.908;2024-02-21T04:13:34;93678.41;;;2.26;89.93
45793;BME280;31495;42.740;22.908;2024-02-21T04:14:33;93668.44;;;2.33;89.91
45793;BME280;31495;42.740;22.908;2024-02-21T04:15:34;93670.66;;;2.36;90.01
45793;BME280;31495;42.740;22.908;2024-02-21T04:16:34;93671.19;;;2.39;89.39
45793;BME280;31495;42.740;22.908;2024-02-21T04:17:34;93668.50;;;2.41;89.36
45793;BME280;31495;42.740;22.908;2024-02-21T04:18:34;93668.03;;;2.46;89.40
45793;BME280;31495;42.740;22.908;2024-02-21T04:19:34;93664.25;;;2.50;88.87
45793;BME280;31495;42.740;22.908;2024-02-21T04:20:34;93660.38;;;2.46;88.85
45793;BME280;31495;42.740;22.908;2024-02-21T04:21:34;93668.03;;;2.46;88.94
45793;BME280;31495;42.740;22.908;2024-02-21T04:22:34;93663.91;;;2.45;89.11
45793;BME280;31495;42.740;22.908;2024-02-21T04:23:34;93665.78;;;2.43;89.19
45793;BME280;31495;42.740;22.908;2024-02-21T04:24:35;93672.00;;;2.40;89.13
45793;BME280;31495;42.740;22.908;2024-02-21T04:25:35;93667.59;;;2.32;89.37
45793;BME280;31495;42.740;22.908;2024-02-21T04:26:35;93675.63;;;2.37;89.55
45793;BME280;31495;42.740;22.908;2024-02-21T04:27:35;93669.28;;;2.42;89.27
45793;BME280;31495;42.740;22.908;2024-02-21T04:28:35;93671.06;;;2.41;89.20
45793;BME280;31495;42.740;22.908;2024-02-21T04:29:34;93668.66;;;2.39;89.19
45793;BME280;31495;42.740;22.908;2024-02-21T04:30:35;93666.44;;;2.45;89.12
45793;BME280;31495;42.740;22.908;2024-02-21T04:31:35;93659.38;;;2.38;88.93
45793;BME280;31495;42.740;22.908;2024-02-21T04:32:35;93663.00;;;2.36;89.26
45793;BME280;31495;42.740;22.908;2024-02-21T04:33:35;93669.44;;;2.40;88.72
45793;BME280;31495;42.740;22.908;2024-02-21T04:34:35;93666.53;;;2.35;88.54
45793;BME280;31495;42.740;22.908;2024-02-21T04:35:37;93666.53;;;2.35;88.78
45793;BME280;31495;42.740;22.908;2024-02-21T04:36:38;93671.91;;;2.32;88.71
45793;BME280;31495;42.740;22.908;2024-02-21T04:37:37;93674.63;;;2.30;88.89
45793;BME280;31495;42.740;22.908;2024-02-21T04:38:37;93671.41;;;2.28;89.10
45793;BME280;31495;42.740;22.908;2024-02-21T04:39:38;93681.78;;;2.27;88.98
45793;BME280;31495;42.740;22.908;2024-02-21T04:40:37;93680.00;;;2.27;88.67
45793;BME280;31495;42.740;22.908;2024-02-21T04:41:36;93681.91;;;2.25;88.58
45793;BME280;31495;42.740;22.908;2024-02-21T04:42:36;93679.94;;;2.19;88.65
45793;BME280;31495;42.740;22.908;2024-02-21T04:43:36;93622.38;;;1.71;88.74
45793;BME280;31495;42.740;22.908;2024-02-21T04:44:40;93676.00;;;2.07;89.13
45793;BME280;31495;42.740;22.908;2024-02-21T04:45:39;93686.03;;;2.08;88.91
45793;BME280;31495;42.740;22.908;2024-02-21T04:46:41;93686.78;;;2.00;88.91
45793;BME280;31495;42.740;22.908;2024-02-21T04:47:42;93687.44;;;2.02;89.02
45793;BME280;31495;42.740;22.908;2024-02-21T04:48:41;93687.72;;;1.99;88.74
45793;BME280;31495;42.740;22.908;2024-02-21T04:49:40;93685.31;;;1.98;88.74
45793;BME280;31495;42.740;22.908;2024-02-21T04:50:40;93686.94;;;1.99;88.90
45793;BME280;31495;42.740;22.908;2024-02-21T04:51:41;93690.56;;;1.96;88.70
45793;BME280;31495;42.740;22.908;2024-02-21T04:52:40;93692.59;;;1.93;88.76
45793;BME280;31495;42.740;22.908;2024-02-21T04:53:39;93692.38;;;1.86;89.06
45793;BME280;31495;42.740;22.908;2024-02-21T04:54:39;93685.50;;;1.87;89.17
45793;BME280;31495;42.740;22.908;2024-02-21T04:55:38;93687.25;;;1.86;89.16
45793;BME280;31495;42.740;22.908;2024-02-21T04:56:39;93690.59;;;1.87;89.17
45793;BME280;31495;42.740;22.908;2024-02-21T04:57:38;93685.78;;;1.83;89.41
45793;BME280;31495;42.740;22.908;2024-02-21T04:58:38;93684.47;;;1.79;89.32
45793;BME280;31495;42.740;22.908;2024-02-21T04:59:38;93683.25;;;1.83;89.75
45793;BME280;31495;42.740;22.908;2024-02-21T05:00:38;93632.00;;;1.49;89.29
45793;BME280;31495;42.740;22.908;2024-02-21T05:01:37;93681.13;;;1.79;89.53
45793;BME280;31495;42.740;22.908;2024-02-21T05:02:38;93682.72;;;1.80;89.76
45793;BME280;31495;42.740;22.908;2024-02-21T05:03:38;93683.56;;;1.80;89.86
45793;BME280;31495;42.740;22.908;2024-02-21T05:04:38;93684.19;;;1.82;89.72
45793;BME280;31495;42.740;22.908;2024-02-21T05:05:40;93683.47;;;1.90;89.42
45793;BME280;31495;42.740;22.908;2024-02-21T05:06:40;93626.47;;;1.54;89.18
45793;BME280;31495;42.740;22.908;2024-02-21T05:07:40;93687.13;;;1.88;89.30
45793;BME280;31495;42.740;22.908;2024-02-21T05:08:40;93688.28;;;1.93;89.23
45793;BME280;31495;42.740;22.908;2024-02-21T05:09:39;93688.28;;;1.93;89.21
45793;BME280;31495;42.740;22.908;2024-02-21T05:10:39;93688.00;;;1.96;89.42
45793;BME280;31495;42.740;22.908;2024-02-21T05:11:38;93689.75;;;1.96;89.41
45793;BME280;31495;42.740;22.908;2024-02-21T05:12:38;93688.28;;;1.93;89.43
45793;BME280;31495;42.740;22.908;2024-02-21T05:13:39;93627.81;;;1.58;89.64
45793;BME280;31495;42.740;22.908;2024-02-21T05:14:39;93692.03;;;1.99;89.79
45793;BME280;31495;42.740;22.908;2024-02-21T05:15:39;93693.63;;;2.00;89.81
45793;BME280;31495;42.740;22.908;2024-02-21T05:16:39;93695.22;;;2.01;89.60
45793;BME280;31495;42.740;22.908;2024-02-21T05:17:39;93686.34;;;2.05;89.45